Time;durP1;ratioP1;P1;durP2;ratioP2;P2;SDS_P1;SDS_P2;PMS_P1;PMS_P2;Temp;Humidity;BMP_temperature;BMP_pressure;BME280_temperature;BME280_humidity;BME280_pressure;Samples;Min_cycle;Max_cycle;Signal;HPM_P1;HPM_P2
2022/10/17 00:01:16;;;;;;;11.22;7.75;;;;;;;11.08;87.21;102029.97;1767603;81;21558;-90
2022/10/17 00:03:43;;;;;;;12.20;6.75;;;;;;;11.05;87.06;102027.61;1746265;81;21860;-90
2022/10/17 00:09:52;;;;;;;33.02;16.95;;;;;;;10.96;87.14;102025.50;1718062;82;21068;-90
2022/10/17 00:12:18;;;;;;;42.15;24.40;;;;;;;10.91;87.27;102030.97;1737150;81;21623;-89
2022/10/17 00:14:45;;;;;;;37.20;21.20;;;;;;;10.91;87.39;102037.98;1739263;81;21316;-89
2022/10/17 00:17:14;;;;;;;40.60;22.93;;;;;;;10.89;87.32;102037.91;1756636;81;21803;-90
2022/10/17 00:19:41;;;;;;;30.92;20.80;;;;;;;10.87;87.28;102031.25;1768059;81;21090;-89
2022/10/17 00:22:09;;;;;;;47.55;29.23;;;;;;;10.84;87.30;102027.58;1754823;80;21078;-89
2022/10/17 00:24:39;;;;;;;16.32;12.35;;;;;;;10.83;87.40;102033.27;1748906;81;21151;-89
2022/10/17 00:27:06;;;;;;;32.67;21.52;;;;;;;10.82;87.29;102027.93;1747460;81;21059;-90
2022/10/17 00:29:33;;;;;;;14.33;9.30;;;;;;;10.79;87.34;102039.63;1731275;81;21701;-90
2022/10/17 00:32:00;;;;;;;12.07;7.58;;;;;;;10.75;87.26;102033.33;1742923;81;21035;-89
2022/10/17 00:34:28;;;;;;;11.75;8.00;;;;;;;10.71;87.18;102036.66;1726516;81;21078;-89
2022/10/17 00:36:55;;;;;;;9.88;7.83;;;;;;;10.67;87.14;102040.88;1748021;81;21063;-89
2022/10/17 00:39:22;;;;;;;14.80;10.15;;;;;;;10.66;87.19;102036.86;1739947;81;21293;-89
2022/10/17 00:41:49;;;;;;;18.50;13.08;;;;;;;10.66;87.26;102040.42;1726620;81;22538;-89
2022/10/17 00:44:36;;;;;;;10.58;8.40;;;;;;;10.68;87.40;102049.28;1748604;81;21078;-89
2022/10/17 00:47:05;;;;;;;13.05;9.48;;;;;;;10.68;87.33;102045.34;1755246;80;21862;-89
2022/10/17 00:49:34;;;;;;;14.30;10.80;;;;;;;10.66;87.23;102047.00;1753828;80;21101;-90
2022/10/17 00:52:08;;;;;;;12.75;9.85;;;;;;;10.65;87.18;102042.98;1736408;81;21054;-90
2022/10/17 00:54:39;;;;;;;14.13;9.93;;;;;;;10.65;87.37;102047.81;1740939;81;21821;-84
2022/10/17 00:57:06;;;;;;;13.88;9.30;;;;;;;10.64;87.33;102043.40;1743736;81;21040;-89
2022/10/17 00:59:33;;;;;;;9.93;7.15;;;;;;;10.62;87.24;102046.38;1749504;81;21069;-90
2022/10/17 01:02:03;;;;;;;9.53;7.87;;;;;;;10.59;87.25;102057.19;1741532;81;21050;-89
2022/10/17 01:04:30;;;;;;;9.13;7.33;;;;;;;10.57;87.18;102060.17;1759736;80;21074;-90
2022/10/17 01:06:56;;;;;;;12.65;7.45;;;;;;;10.54;87.17;102062.22;1756616;80;22551;-83
2022/10/17 01:09:24;;;;;;;9.73;6.87;;;;;;;10.53;87.19;102075.31;1754309;81;21073;-83
2022/10/17 01:12:05;;;;;;;12.78;8.13;;;;;;;10.51;87.20;102063.42;1743439;80;21082;-90
2022/10/17 01:15:19;;;;;;;10.18;7.67;;;;;;;10.48;87.19;102065.47;1732707;82;21059;-91
2022/10/17 01:18:09;;;;;;;29.10;13.38;;;;;;;10.46;87.18;102061.88;1720066;81;21105;-91
2022/10/17 01:21:31;;;;;;;12.65;8.15;;;;;;;10.43;87.27;102052.50;1745545;80;22453;-90
2022/10/17 01:24:27;;;;;;;11.10;7.47;;;;;;;10.43;87.32;102063.03;1734224;82;21110;-90
2022/10/17 01:27:25;;;;;;;11.73;7.78;;;;;;;10.36;87.16;102071.89;1736895;81;21096;-90
2022/10/17 01:30:11;;;;;;;7.00;5.95;;;;;;;10.30;87.09;102080.01;1708443;82;21079;-89
2022/10/17 01:32:55;;;;;;;8.55;6.97;;;;;;;10.24;87.07;102083.61;1726247;81;21117;-83
2022/10/17 01:35:46;;;;;;;8.83;6.58;;;;;;;10.21;87.12;102095.32;1733590;81;21757;-83
2022/10/17 01:38:18;;;;;;;9.83;6.58;;;;;;;10.18;87.10;102103.48;1695096;83;21143;-83
2022/10/17 01:41:13;;;;;;;9.00;6.05;;;;;;;10.14;87.11;102087.95;1737807;81;21078;-83
2022/10/17 01:43:54;;;;;;;11.73;6.92;;;;;;;10.12;87.23;102071.20;1717707;83;21647;-89
2022/10/17 01:46:39;;;;;;;7.58;6.03;;;;;;;10.10;87.28;102079.44;1733825;81;21109;-89
2022/10/17 01:49:08;;;;;;;11.25;6.72;;;;;;;10.07;87.31;102079.27;1717289;81;22057;-89
2022/10/17 01:51:49;;;;;;;8.45;6.80;;;;;;;10.06;87.34;102086.66;1725530;81;21651;-89
2022/10/17 01:54:36;;;;;;;12.20;6.83;;;;;;;10.03;87.33;102094.42;1743824;80;21220;-90
2022/10/17 01:57:06;;;;;;;10.70;6.55;;;;;;;10.02;87.40;102097.48;1660085;81;21114;-83
2022/10/17 01:59:43;;;;;;;8.80;6.60;;;;;;;10.00;87.37;102099.10;1750154;80;22245;-83
2022/10/17 02:02:10;;;;;;;13.00;6.80;;;;;;;10.00;87.41;102100.84;1753623;81;22439;-89
2022/10/17 02:04:37;;;;;;;9.63;6.60;;;;;;;9.98;87.36;102098.55;1715581;82;21037;-89
2022/10/17 02:07:09;;;;;;;9.80;6.30;;;;;;;9.95;87.28;102104.97;1756847;81;21050;-89
2022/10/17 02:09:36;;;;;;;7.80;6.20;;;;;;;9.92;87.24;102114.94;1736408;81;21067;-82
2022/10/17 02:12:39;;;;;;;11.78;6.62;;;;;;;9.89;87.14;102122.27;1742773;81;21090;-82
2022/10/17 02:15:26;;;;;;;14.05;6.95;;;;;;;9.85;87.09;102112.44;1746189;81;21761;-82
2022/10/17 02:18:17;;;;;;;8.23;6.47;;;;;;;9.81;87.04;102114.39;1748345;81;21046;-82
2022/10/17 02:20:58;;;;;;;12.98;7.10;;;;;;;9.78;87.03;102122.54;1718543;81;21619;-83
2022/10/17 02:23:45;;;;;;;9.80;7.00;;;;;;;9.73;86.91;102119.27;1710060;82;21050;-83
2022/10/17 02:26:33;;;;;;;10.45;5.85;;;;;;;9.69;86.99;102113.80;1720074;81;21036;-89
2022/10/17 02:29:08;;;;;;;12.60;6.30;;;;;;;9.66;87.06;102107.95;1748770;81;22618;-89
2022/10/17 02:31:46;;;;;;;8.25;5.65;;;;;;;9.62;86.99;102113.88;1747138;82;21069;-90
2022/10/17 02:34:26;;;;;;;8.93;5.83;;;;;;;9.60;87.23;102122.11;1722967;81;21035;-89
2022/10/17 02:36:57;;;;;;;11.25;5.62;;;;;;;9.59;87.52;102126.89;1751221;81;21058;-89
2022/10/17 02:39:24;;;;;;;9.28;5.20;;;;;;;9.61;87.67;102130.89;1734009;82;21072;-83
2022/10/17 02:41:51;;;;;;;7.83;5.00;;;;;;;9.60;87.73;102143.14;1723940;82;21681;-83
2022/10/17 02:44:21;;;;;;;8.08;5.50;;;;;;;9.60;87.80;102140.52;1729355;82;21043;-82
2022/10/17 02:46:54;;;;;;;7.72;5.83;;;;;;;9.62;87.79;102142.80;1741574;82;21034;-89
2022/10/17 02:49:30;;;;;;;10.40;5.73;;;;;;;9.65;87.83;102139.45;1750238;81;21085;-83
2022/10/17 02:52:28;;;;;;;8.90;6.10;;;;;;;9.65;87.73;102144.70;1746694;81;21019;-88
2022/10/17 02:55:16;;;;;;;7.20;5.15;;;;;;;9.65;87.55;102151.28;1713994;82;22538;-84
2022/10/17 02:57:59;;;;;;;8.08;5.53;;;;;;;9.64;87.57;102150.77;1741641;82;21584;-83
2022/10/17 03:00:28;;;;;;;7.95;5.65;;;;;;;9.65;87.61;102158.75;1747213;82;21047;-84
2022/10/17 03:02:54;;;;;;;7.75;5.33;;;;;;;9.67;87.62;102166.72;1724975;82;21067;-83
2022/10/17 03:05:35;;;;;;;9.85;6.03;;;;;;;9.69;87.59;102162.02;1742494;82;21026;-83
2022/10/17 03:08:02;;;;;;;10.90;5.62;;;;;;;9.71;87.59;102164.31;1736003;82;21823;-89
2022/10/17 03:10:28;;;;;;;7.03;5.78;;;;;;;9.75;87.59;102173.68;1735718;82;21591;-89
2022/10/17 03:12:55;;;;;;;11.48;5.97;;;;;;;9.77;87.46;102175.55;1742205;82;21590;-89
2022/10/17 03:15:22;;;;;;;12.13;5.78;;;;;;;9.77;87.35;102174.23;1740267;82;21739;-89
2022/10/17 03:17:49;;;;;;;8.30;5.62;;;;;;;9.75;87.17;102163.16;1731566;81;21591;-90
2022/10/17 03:20:16;;;;;;;6.53;4.80;;;;;;;9.70;87.03;102174.36;1742524;81;21929;-89
2022/10/17 03:22:43;;;;;;;9.45;5.20;;;;;;;9.66;87.01;102175.41;1741714;81;21367;-90
2022/10/17 03:25:10;;;;;;;5.55;4.83;;;;;;;9.60;87.05;102175.11;1754594;81;21049;-89
2022/10/17 03:27:37;;;;;;;7.70;5.17;;;;;;;9.59;87.09;102188.67;1769307;80;21115;-90
2022/10/17 03:30:05;;;;;;;7.55;5.37;;;;;;;9.57;87.13;102178.87;1746160;80;21059;-90
2022/10/17 03:32:35;;;;;;;9.23;5.33;;;;;;;9.57;87.16;102166.63;1745052;80;21874;-91
2022/10/17 03:35:02;;;;;;;10.70;5.03;;;;;;;9.57;87.19;102164.42;1745502;80;21066;-90
2022/10/17 03:37:29;;;;;;;9.40;5.50;;;;;;;9.54;87.11;102162.13;1776994;80;21124;-89
2022/10/17 03:39:55;;;;;;;7.83;4.83;;;;;;;9.54;87.11;102159.92;1777182;80;21046;-88
2022/10/17 03:42:22;;;;;;;8.43;5.40;;;;;;;9.50;87.01;102163.22;1755871;80;21321;-89
2022/10/17 03:44:49;;;;;;;8.93;5.35;;;;;;;9.46;86.99;102169.11;1774690;80;21917;-88
2022/10/17 03:47:16;;;;;;;9.33;5.10;;;;;;;9.45;87.07;102179.16;1760032;80;21315;-89
2022/10/17 03:49:44;;;;;;;13.65;5.40;;;;;;;9.46;87.20;102184.88;1773139;80;21066;-89
2022/10/17 03:52:12;;;;;;;13.50;5.92;;;;;;;9.49;87.40;102171.49;1744771;80;21217;-88
2022/10/17 03:54:39;;;;;;;7.12;5.40;;;;;;;9.50;87.35;102167.16;1753993;80;21114;-88
2022/10/17 03:57:05;;;;;;;11.68;5.55;;;;;;;9.53;87.43;102162.97;1740693;81;21739;-88
2022/10/17 03:59:33;;;;;;;11.48;5.62;;;;;;;9.56;87.43;102160.01;1774472;80;21107;-87
2022/10/17 04:02:01;;;;;;;9.75;5.28;;;;;;;9.60;87.44;102174.69;1772953;80;21062;-87
2022/10/17 04:04:28;;;;;;;10.80;5.90;;;;;;;9.62;87.32;102178.72;1775510;80;21142;-88
2022/10/17 04:06:55;;;;;;;9.70;5.78;;;;;;;9.59;86.99;102179.47;1754479;80;21598;-89
2022/10/17 04:09:22;;;;;;;12.07;5.58;;;;;;;9.58;86.98;102191.22;1744711;80;21720;-89
2022/10/17 04:11:49;;;;;;;7.35;5.03;;;;;;;9.59;86.96;102200.89;1747257;80;21540;-88
2022/10/17 04:14:16;;;;;;;11.12;5.22;;;;;;;9.60;86.92;102217.17;1743071;80;21054;-88
2022/10/17 04:16:45;;;;;;;7.12;4.65;;;;;;;9.60;86.86;102224.64;1744859;81;21071;-91
2022/10/17 04:19:12;;;;;;;8.95;4.45;;;;;;;9.61;86.86;102223.83;1752060;80;21066;-89
2022/10/17 04:21:39;;;;;;;7.50;4.72;;;;;;;9.61;86.88;102220.27;1754179;80;21811;-90
2022/10/17 04:24:06;;;;;;;10.80;5.10;;;;;;;9.62;86.83;102227.35;1760222;80;21075;-90
2022/10/17 04:26:33;;;;;;;7.08;4.65;;;;;;;9.61;86.77;102213.70;1757390;80;21089;-89
2022/10/17 04:28:59;;;;;;;5.92;4.40;;;;;;;9.61;86.71;102217.64;1778205;80;21014;-91
2022/10/17 04:31:26;;;;;;;7.50;5.37;;;;;;;9.61;86.79;102213.31;1762414;80;21096;-88
2022/10/17 04:33:53;;;;;;;7.55;4.90;;;;;;;9.64;86.82;102213.88;1769837;80;21768;-93
2022/10/17 04:36:21;;;;;;;10.90;9.85;;;;;;;9.64;86.80;102203.36;1783927;80;21054;-92
2022/10/17 04:38:48;;;;;;;10.20;8.20;;;;;;;9.64;86.65;102212.14;1788748;80;21057;-93
2022/10/17 04:41:17;;;;;;;9.83;6.05;;;;;;;9.63;86.47;102208.11;1784090;80;21136;-92
2022/10/17 04:43:44;;;;;;;10.05;6.10;;;;;;;9.62;86.28;102217.73;1757711;81;21065;-93
2022/10/17 04:46:13;;;;;;;7.17;6.28;;;;;;;9.62;86.29;102222.98;1748989;80;21759;-91
2022/10/17 04:48:40;;;;;;;9.00;6.50;;;;;;;9.66;86.45;102207.86;1735111;81;21086;-92
2022/10/17 04:51:10;;;;;;;8.65;6.47;;;;;;;9.71;86.52;102209.01;1767577;80;21114;-89
2022/10/17 04:53:38;;;;;;;10.32;6.33;;;;;;;9.78;86.62;102214.19;1776255;80;21116;-92
2022/10/17 04:56:17;;;;;;;11.60;6.03;;;;;;;9.79;86.41;102212.03;1787350;80;21121;-93
2022/10/17 04:58:44;;;;;;;9.78;5.97;;;;;;;9.80;86.39;102212.53;1770582;81;21839;-91
2022/10/17 05:01:15;;;;;;;8.73;6.25;;;;;;;9.84;86.45;102221.07;1701745;83;21045;-87
2022/10/17 05:03:42;;;;;;;12.63;6.10;;;;;;;9.89;86.45;102230.50;1704532;83;21061;-88
2022/10/17 05:06:12;;;;;;;13.03;6.03;;;;;;;9.92;86.41;102238.14;1723395;82;21031;-93
2022/10/17 05:08:38;;;;;;;11.75;5.97;;;;;;;9.97;86.40;102228.29;1703697;83;21082;-91
2022/10/17 05:11:07;;;;;;;6.80;5.80;;;;;;;9.99;86.33;102239.37;1742256;82;21736;-90
2022/10/17 05:13:34;;;;;;;10.45;5.83;;;;;;;10.00;86.24;102230.63;1725992;82;21105;-89
2022/10/17 05:16:01;;;;;;;9.73;5.87;;;;;;;10.03;86.18;102241.33;1726598;82;21551;-89
2022/10/17 05:18:28;;;;;;;12.80;5.95;;;;;;;10.05;86.15;102242.72;1709135;82;21081;-89
2022/10/17 05:20:55;;;;;;;10.95;5.72;;;;;;;10.09;86.25;102239.00;1728070;82;21544;-89
2022/10/17 05:23:22;;;;;;;7.10;5.65;;;;;;;10.15;86.32;102233.14;1727698;82;21759;-89
2022/10/17 05:25:54;;;;;;;17.70;10.90;;;;;;;10.21;86.30;102232.16;1767900;81;21074;-86
2022/10/17 05:28:22;;;;;;;15.08;9.33;;;;;;;10.29;86.39;102240.44;1763985;80;21062;-88
2022/10/17 05:30:49;;;;;;;78.50;61.80;;;;;;;10.34;86.31;102236.31;1737484;82;21043;-85
2022/10/17 05:33:16;;;;;;;14.10;11.75;;;;;;;10.42;86.30;102236.72;1739783;81;21086;-88
2022/10/17 05:35:43;;;;;;;10.78;8.23;;;;;;;10.44;86.23;102239.91;1760830;81;21781;-87
2022/10/17 05:38:09;;;;;;;11.50;6.17;;;;;;;10.48;86.03;102243.59;1738367;81;21017;-88
2022/10/17 05:40:38;;;;;;;12.40;7.78;;;;;;;10.52;86.06;102244.66;1768386;81;21102;-86
2022/10/17 05:43:05;;;;;;;12.63;8.58;;;;;;;10.50;85.95;102246.78;1759075;81;21586;-85
2022/10/17 05:45:32;;;;;;;15.00;8.23;;;;;;;10.55;85.92;102247.03;1746774;81;21104;-84
2022/10/17 05:47:59;;;;;;;12.00;7.30;;;;;;;10.57;85.70;102248.00;1752294;81;22512;-85
2022/10/17 05:50:27;;;;;;;11.20;7.60;;;;;;;10.60;85.77;102252.08;1741535;81;21023;-88
2022/10/17 05:52:54;;;;;;;11.73;7.05;;;;;;;10.66;85.70;102255.03;1750422;81;21046;-90
2022/10/17 05:55:21;;;;;;;13.13;6.78;;;;;;;10.72;85.73;102262.33;1760980;81;21066;-90
2022/10/17 05:57:49;;;;;;;12.45;6.20;;;;;;;10.77;85.68;102264.75;1767301;80;21598;-88
2022/10/17 06:00:16;;;;;;;9.25;6.45;;;;;;;10.84;85.66;102265.96;1751438;80;21764;-87
2022/10/17 06:02:45;;;;;;;11.12;6.83;;;;;;;10.90;85.62;102260.98;1766696;81;21066;-88
2022/10/17 06:05:12;;;;;;;9.60;6.97;;;;;;;10.96;85.61;102267.88;1740568;81;21074;-87
2022/10/17 06:07:41;;;;;;;10.70;6.60;;;;;;;11.02;85.57;102268.17;1758401;81;21046;-88
2022/10/17 06:10:11;;;;;;;11.18;6.08;;;;;;;11.11;85.65;102265.47;1758223;81;21517;-88
2022/10/17 06:12:38;;;;;;;16.50;6.83;;;;;;;11.16;85.53;102254.30;1741629;81;21756;-89
2022/10/17 06:15:12;;;;;;;10.58;6.30;;;;;;;11.20;85.35;102261.95;1764649;80;21067;-88
2022/10/17 06:17:38;;;;;;;14.35;10.90;;;;;;;11.26;85.39;102269.73;1772087;80;21078;-88
2022/10/17 06:20:06;;;;;;;16.57;8.73;;;;;;;11.32;85.29;102275.71;1768906;80;21064;-88
2022/10/17 06:22:33;;;;;;;12.90;8.48;;;;;;;11.39;85.47;102260.67;1745808;81;22373;-87
2022/10/17 06:25:00;;;;;;;12.03;7.53;;;;;;;11.52;85.39;102262.09;1771319;80;21749;-85
2022/10/17 06:27:27;;;;;;;10.68;7.53;;;;;;;11.63;85.37;102265.23;1757847;80;21093;-86
2022/10/17 06:29:54;;;;;;;10.10;7.60;;;;;;;11.68;85.01;102271.20;1779669;80;21081;-86
2022/10/17 06:32:21;;;;;;;13.03;9.00;;;;;;;11.73;85.00;102270.10;1779513;80;21187;-87
2022/10/17 06:34:48;;;;;;;17.55;13.08;;;;;;;11.74;84.72;102282.44;1747883;80;21675;-86
2022/10/17 06:37:15;;;;;;;14.38;10.03;;;;;;;11.72;84.55;102280.16;1749823;80;21919;-86
2022/10/17 06:39:44;;;;;;;13.58;8.30;;;;;;;11.76;84.73;102279.88;1749052;80;21022;-87
2022/10/17 06:42:11;;;;;;;12.60;7.83;;;;;;;11.89;85.08;102278.69;1765573;80;21062;-87
2022/10/17 06:44:38;;;;;;;12.70;7.87;;;;;;;12.06;85.29;102279.03;1779074;80;21121;-86
2022/10/17 06:47:05;;;;;;;17.60;8.23;;;;;;;12.23;85.39;102296.49;1754530;80;21292;-89
2022/10/17 06:49:33;;;;;;;14.73;7.40;;;;;;;12.41;85.42;102295.50;1771867;80;21804;-88
2022/10/17 06:52:00;;;;;;;17.27;7.70;;;;;;;12.59;85.31;102297.98;1765611;80;21741;-84
2022/10/17 06:54:27;;;;;;;12.73;6.35;;;;;;;12.74;85.16;102306.97;1779798;80;21058;-89
2022/10/17 06:56:54;;;;;;;9.95;6.70;;;;;;;12.86;84.72;102303.91;1766178;80;21046;-88
2022/10/17 06:59:21;;;;;;;10.68;6.22;;;;;;;12.89;84.54;102308.02;1768842;80;21077;-91
2022/10/17 07:01:48;;;;;;;13.85;6.08;;;;;;;12.94;84.37;102309.11;1765660;80;21796;-89
2022/10/17 07:04:15;;;;;;;6.97;6.12;;;;;;;12.99;84.35;102307.13;1771908;80;21096;-89
2022/10/17 07:06:42;;;;;;;13.62;6.58;;;;;;;12.97;84.07;102306.17;1760107;80;21053;-89
2022/10/17 07:09:09;;;;;;;13.20;6.15;;;;;;;12.97;83.89;102304.84;1778323;80;21063;-89
2022/10/17 07:11:36;;;;;;;7.17;6.22;;;;;;;12.95;83.85;102302.96;1760996;80;21105;-89
2022/10/17 07:14:03;;;;;;;10.08;6.87;;;;;;;13.02;84.15;102301.05;1747221;80;22935;-89
2022/10/17 07:16:30;;;;;;;13.45;6.78;;;;;;;13.08;84.07;102303.03;1748299;80;21062;-89
2022/10/17 07:18:57;;;;;;;15.98;7.20;;;;;;;13.13;84.03;102304.13;1749193;80;21058;-89
2022/10/17 07:21:24;;;;;;;14.30;6.60;;;;;;;13.11;83.80;102305.39;1760703;80;21139;-89
2022/10/17 07:23:51;;;;;;;9.85;6.30;;;;;;;13.07;83.60;102311.83;1758283;80;21117;-89
2022/10/17 07:26:18;;;;;;;9.08;6.90;;;;;;;13.01;83.49;102311.16;1770382;80;21783;-89
2022/10/17 07:28:46;;;;;;;8.63;6.72;;;;;;;12.94;83.43;102316.61;1748998;80;21031;-89
2022/10/17 07:31:15;;;;;;;10.95;6.67;;;;;;;12.88;83.50;102312.41;1737601;82;21075;-83
2022/10/17 07:33:42;;;;;;;13.18;7.00;;;;;;;12.82;83.52;102309.09;1764043;80;21179;-82
2022/10/17 07:36:11;;;;;;;8.58;6.20;;;;;;;12.80;83.63;102316.45;1778054;80;21065;-83
2022/10/17 07:38:38;;;;;;;8.28;6.92;;;;;;;12.82;83.84;102315.70;1778819;80;22115;-82
2022/10/17 07:41:07;;;;;;;14.10;7.95;;;;;;;12.93;84.17;102320.11;1776510;80;21054;-83
2022/10/17 07:43:35;;;;;;;13.22;10.25;;;;;;;13.08;84.34;102318.90;1748073;80;21050;-83
2022/10/17 07:46:02;;;;;;;20.88;15.45;;;;;;;13.18;84.24;102318.44;1773772;80;21621;-83
2022/10/17 07:48:29;;;;;;;27.90;19.92;;;;;;;13.26;84.18;102318.73;1745920;81;21117;-83
2022/10/17 07:50:56;;;;;;;37.48;28.10;;;;;;;13.37;84.16;102328.92;1747400;80;21762;-83
2022/10/17 07:53:23;;;;;;;35.60;27.02;;;;;;;13.43;83.95;102333.97;1769299;80;21042;-83
2022/10/17 07:55:50;;;;;;;40.85;29.87;;;;;;;13.47;83.77;102332.81;1747847;82;21062;-83
2022/10/17 07:58:17;;;;;;;29.63;21.65;;;;;;;13.46;83.49;102332.34;1746035;80;21614;-82
2022/10/17 08:00:47;;;;;;;32.85;27.37;;;;;;;13.46;83.42;102326.13;1772421;80;21606;-83
2022/10/17 08:03:14;;;;;;;34.92;29.60;;;;;;;13.51;83.55;102330.75;1774216;80;22124;-83
2022/10/17 08:05:41;;;;;;;34.63;25.88;;;;;;;13.63;83.65;102332.06;1750662;80;21081;-83
2022/10/17 08:08:08;;;;;;;30.82;25.30;;;;;;;13.81;83.84;102336.73;1762972;80;21110;-83
2022/10/17 08:10:35;;;;;;;30.23;25.70;;;;;;;13.96;83.52;102340.37;1752540;80;21603;-85
2022/10/17 08:13:02;;;;;;;29.77;25.10;;;;;;;14.10;83.63;102337.80;1734105;82;21049;-83
2022/10/17 08:15:30;;;;;;;33.95;25.88;;;;;;;14.23;83.48;102336.50;1775355;80;21745;-83
2022/10/17 08:17:56;;;;;;;29.00;22.77;;;;;;;14.34;83.37;102335.53;1756195;80;21150;-83
2022/10/17 08:20:23;;;;;;;33.63;22.82;;;;;;;14.39;83.14;102328.66;1736392;80;21073;-83
2022/10/17 08:22:53;;;;;;;29.07;20.52;;;;;;;14.37;82.87;102323.73;1775917;80;21321;-83
2022/10/17 08:25:20;;;;;;;25.35;16.75;;;;;;;14.29;82.65;102322.57;1721086;82;21054;-83
2022/10/17 08:27:47;;;;;;;25.75;16.15;;;;;;;14.23;82.60;102313.06;1756430;80;21949;-83
2022/10/17 08:30:15;;;;;;;24.92;15.13;;;;;;;14.16;82.62;102318.59;1782545;80;21293;-83
2022/10/17 08:32:42;;;;;;;16.93;12.68;;;;;;;14.17;82.83;102319.97;1755804;80;21575;-83
2022/10/17 08:35:09;;;;;;;16.42;11.22;;;;;;;14.18;82.84;102325.73;1769639;80;21041;-83
2022/10/17 08:37:36;;;;;;;16.42;10.82;;;;;;;14.23;82.88;102318.36;1778005;80;21058;-83
2022/10/17 08:40:03;;;;;;;17.90;10.43;;;;;;;14.26;82.89;102313.19;1748037;80;21729;-89
2022/10/17 08:42:54;;;;;;;19.07;12.47;;;;;;;14.28;82.79;102323.41;1759770;81;21129;-90
2022/10/17 08:45:43;;;;;;;19.02;11.12;;;;;;;14.28;82.74;102319.00;1713287;83;22207;-89
2022/10/17 08:48:13;;;;;;;15.25;11.15;;;;;;;14.35;82.87;102314.83;1674240;84;21082;-89
2022/10/17 08:50:48;;;;;;;15.03;10.65;;;;;;;14.41;82.93;102304.87;1745389;81;21739;-89
2022/10/17 08:53:35;;;;;;;11.22;9.25;;;;;;;14.54;82.93;102321.22;1747581;80;21903;-89
2022/10/17 08:56:06;;;;;;;12.20;8.30;;;;;;;14.67;82.99;102317.70;1747446;80;21063;-89
2022/10/17 08:58:35;;;;;;;9.18;7.72;;;;;;;14.82;83.04;102314.23;1748157;80;21085;-89
2022/10/17 09:01:37;;;;;;;13.48;8.70;;;;;;;14.99;82.99;102307.25;1746256;80;21074;-89
2022/10/17 09:04:51;;;;;;;11.12;8.03;;;;;;;15.15;82.99;102302.48;1773073;80;21627;-83
2022/10/17 09:07:40;;;;;;;30.45;19.57;;;;;;;15.32;82.65;102301.66;1778952;80;21742;-83
2022/10/17 09:10:22;;;;;;;18.50;11.57;;;;;;;15.44;82.33;102294.92;1769865;80;21054;-83
2022/10/17 09:13:14;;;;;;;14.33;9.70;;;;;;;15.53;82.24;102296.09;1747291;80;21090;-89
2022/10/17 09:16:18;;;;;;;10.63;9.63;;;;;;;15.60;82.07;102292.27;1769414;80;21183;-89
2022/10/17 09:19:02;;;;;;;15.23;9.10;;;;;;;15.62;81.85;102295.47;1773317;80;21143;-89
2022/10/17 09:21:52;;;;;;;16.73;9.68;;;;;;;15.63;81.70;102305.65;1777115;80;21846;-83
2022/10/17 09:24:24;;;;;;;11.65;9.90;;;;;;;15.60;81.58;102306.47;1772726;80;21043;-83
2022/10/17 09:26:51;;;;;;;10.63;9.53;;;;;;;15.62;81.73;102297.23;1737332;81;21058;-83
2022/10/17 09:29:22;;;;;;;10.93;9.73;;;;;;;15.80;82.26;102299.09;1754131;81;21042;-83
2022/10/17 09:32:16;;;;;;;21.42;9.78;;;;;;;16.02;82.30;102298.37;1732615;81;21084;-83
2022/10/17 09:34:43;;;;;;;12.07;9.60;;;;;;;16.22;82.12;102297.59;1731890;81;22570;-83
2022/10/17 09:37:15;;;;;;;10.85;9.35;;;;;;;16.38;81.98;102289.58;1759333;81;21062;-83
2022/10/17 09:39:42;;;;;;;15.50;9.58;;;;;;;16.55;81.94;102292.23;1733846;81;21054;-83
2022/10/17 09:42:13;;;;;;;14.60;10.60;;;;;;;16.66;81.62;102284.08;1763522;81;21052;-83
2022/10/17 09:44:48;;;;;;;12.03;10.80;;;;;;;16.70;81.17;102279.74;1742389;81;21098;-84
2022/10/17 09:47:41;;;;;;;14.15;9.68;;;;;;;16.69;80.86;102282.84;1746288;81;21865;-84
2022/10/17 09:50:22;;;;;;;11.25;9.78;;;;;;;16.71;80.57;102279.78;1733404;81;21717;-84
2022/10/17 09:52:49;;;;;;;16.57;10.35;;;;;;;16.77;80.73;102283.02;1733486;81;21807;-84
2022/10/17 09:55:52;;;;;;;16.82;10.00;;;;;;;16.86;80.71;102289.93;1742604;81;21051;-84
2022/10/17 09:58:19;;;;;;;11.75;10.28;;;;;;;16.89;80.62;102292.67;1712342;82;21069;-89
2022/10/17 10:00:47;;;;;;;12.93;10.08;;;;;;;16.89;80.38;102294.00;1697264;83;22982;-84
2022/10/17 10:03:23;;;;;;;10.78;9.68;;;;;;;16.89;80.30;102292.67;1681711;84;21144;-84
2022/10/17 10:06:07;;;;;;;14.38;11.12;;;;;;;16.96;80.34;102284.83;1667559;83;21099;-84
2022/10/17 10:08:36;;;;;;;;;;;;;;;17.00;80.15;102292.89;1716786;83;21037;-84
2022/10/17 10:11:06;;;;;;;14.00;11.10;;;;;;;17.14;80.36;102278.60;1708369;83;20205;-83
2022/10/17 10:13:34;;;;;;;13.03;10.55;;;;;;;17.36;80.45;102278.64;1733868;81;21759;-84
2022/10/17 10:16:18;;;;;;;12.40;10.30;;;;;;;17.49;80.08;102270.45;1762538;81;21062;-89
2022/10/17 10:18:45;;;;;;;12.82;9.68;;;;;;;17.70;80.23;102267.36;1742489;81;21070;-83
2022/10/17 10:21:15;;;;;;;12.58;10.45;;;;;;;17.93;79.86;102266.94;1729464;82;21590;-84
2022/10/17 10:23:44;;;;;;;10.50;9.23;;;;;;;18.06;79.54;102263.63;1747974;81;21921;-83
2022/10/17 10:26:26;;;;;;;15.20;9.88;;;;;;;18.14;79.12;102262.44;1777620;80;21700;-83
2022/10/17 10:28:58;;;;;;;13.43;10.78;;;;;;;18.26;78.89;102267.96;1749809;80;21664;-84
2022/10/17 10:31:38;;;;;;;14.83;9.93;;;;;;;18.40;78.64;102270.88;1736905;80;21045;-84
2022/10/17 10:34:19;;;;;;;12.55;11.25;;;;;;;18.52;78.44;102267.52;1741688;80;21078;-84
2022/10/17 10:36:54;;;;;;;15.03;9.75;;;;;;;18.71;78.19;102266.04;1740426;80;21109;-84
2022/10/17 10:39:32;;;;;;;19.17;10.53;;;;;;;18.81;77.93;102271.58;1732507;80;21733;-90
2022/10/17 10:42:03;;;;;;;12.28;10.10;;;;;;;18.91;77.48;102261.94;1716894;80;21071;-90
2022/10/17 10:44:31;;;;;;;11.78;10.58;;;;;;;18.96;77.19;102262.02;1686684;80;21077;-91
2022/10/17 10:47:25;;;;;;;16.65;12.75;;;;;;;18.95;76.82;102262.88;1721695;80;21054;-90
2022/10/17 10:50:16;;;;;;;15.58;13.68;;;;;;;18.93;76.54;102256.63;1722138;80;22716;-90
2022/10/17 10:52:51;;;;;;;15.98;11.20;;;;;;;18.90;76.61;102251.23;1760762;80;22530;-90
2022/10/17 10:55:30;;;;;;;13.95;10.98;;;;;;;18.93;76.47;102250.84;1715521;80;21561;-90
2022/10/17 10:58:01;;;;;;;20.82;15.18;;;;;;;18.95;76.50;102251.77;1730341;80;21658;-90
2022/10/17 11:00:29;;;;;;;14.65;12.20;;;;;;;18.94;76.15;102245.06;1717126;80;21070;-90
2022/10/17 11:03:13;;;;;;;15.23;12.15;;;;;;;18.92;76.09;102245.48;1722502;80;21133;-90
2022/10/17 11:05:57;;;;;;;13.13;11.83;;;;;;;18.90;76.07;102245.48;1762578;80;21938;-90
2022/10/17 11:08:50;;;;;;;14.07;11.85;;;;;;;18.75;75.65;102235.45;1758099;80;21101;-92
2022/10/17 11:11:38;;;;;;;17.17;13.18;;;;;;;18.62;75.68;102243.70;1726095;80;21051;-91
2022/10/17 11:14:20;;;;;;;18.10;15.20;;;;;;;18.49;75.65;102237.72;1762771;80;21118;-90
2022/10/17 11:16:55;;;;;;;17.32;13.53;;;;;;;18.45;76.10;102222.55;1719085;80;21109;-92
2022/10/17 11:19:37;;;;;;;23.70;17.00;;;;;;;18.61;76.44;102227.67;1735401;80;21750;-90
2022/10/17 11:22:30;;;;;;;19.30;14.55;;;;;;;18.74;76.21;102228.75;1724632;80;21079;-83
2022/10/17 11:25:01;;;;;;;17.60;12.95;;;;;;;18.81;76.05;102212.00;1723771;80;21055;-90
2022/10/17 11:27:42;;;;;;;15.78;12.45;;;;;;;18.93;76.03;102199.27;1750109;80;21059;-84
2022/10/17 11:30:13;;;;;;;46.18;31.02;;;;;;;19.03;75.72;102192.74;1731463;82;21628;-91
2022/10/17 11:32:53;;;;;;;26.40;18.35;;;;;;;19.10;75.64;102192.36;1751843;80;21421;-84
2022/10/17 11:35:30;;;;;;;18.00;14.23;;;;;;;19.08;75.32;102187.89;1778788;80;21520;-90
2022/10/17 11:38:22;;;;;;;23.98;17.77;;;;;;;18.95;74.92;102193.05;1773759;80;21036;-90
2022/10/17 11:40:51;;;;;;;29.20;18.77;;;;;;;18.90;75.11;102191.20;1745079;80;21101;-90
2022/10/17 11:43:39;;;;;;;20.02;13.45;;;;;;;18.86;75.10;102188.93;1725688;82;21619;-89
2022/10/17 11:46:17;;;;;;;15.48;11.73;;;;;;;18.80;75.10;102179.48;1750104;80;21769;-89
2022/10/17 11:49:01;;;;;;;16.57;13.10;;;;;;;18.79;75.16;102174.59;1781857;80;21054;-89